createdAt,value
2023-05-09T00:00:50.304Z,817.00
2023-05-09T00:01:50.374Z,818.00
2023-05-09T00:02:50.385Z,816.00
2023-05-09T00:03:50.433Z,814.00
2023-05-09T00:04:50.496Z,819.00
2023-05-09T00:05:50.421Z,821.00
2023-05-09T00:06:50.479Z,818.00
2023-05-09T00:07:50.460Z,816.00
2023-05-09T00:08:50.529Z,815.00
2023-05-09T00:09:50.536Z,813.00
2023-05-09T00:10:50.537Z,812.00
2023-05-09T00:11:50.557Z,812.00
2023-05-09T00:12:50.727Z,814.00
2023-05-09T00:13:50.692Z,812.00
2023-05-09T00:14:50.648Z,811.00
2023-05-09T00:15:50.656Z,810.00
2023-05-09T00:16:50.816Z,810.00
2023-05-09T00:17:50.826Z,807.00
2023-05-09T00:18:50.770Z,806.00
2023-05-09T00:19:50.744Z,806.00
2023-05-09T00:20:50.807Z,804.00
2023-05-09T00:21:50.812Z,803.00
2023-05-09T00:22:50.838Z,803.00
2023-05-09T00:23:50.879Z,806.00
2023-05-09T00:24:50.880Z,803.00
2023-05-09T00:25:50.915Z,802.00
2023-05-09T00:26:50.958Z,805.00
2023-05-09T00:27:51.003Z,806.00
2023-05-09T00:28:51.103Z,806.00
2023-05-09T00:29:51.042Z,804.00
2023-05-09T00:30:51.094Z,801.00
2023-05-09T00:31:51.166Z,799.00
2023-05-09T00:32:51.119Z,799.00
2023-05-09T00:33:51.133Z,800.00
2023-05-09T00:34:51.127Z,799.00
2023-05-09T00:35:51.176Z,799.00
2023-05-09T00:36:51.183Z,797.00
2023-05-09T00:37:51.221Z,797.00
2023-05-09T00:38:51.235Z,800.00
2023-05-09T00:39:51.277Z,801.00
2023-05-09T00:40:51.291Z,802.00
2023-05-09T00:41:51.320Z,798.00
2023-05-09T00:42:51.359Z,797.00
2023-05-09T00:43:51.364Z,798.00
2023-05-09T00:44:51.455Z,799.00
2023-05-09T00:45:51.429Z,801.00
2023-05-09T00:46:51.447Z,800.00
2023-05-09T00:47:51.472Z,798.00
2023-05-09T00:48:51.500Z,797.00
2023-05-09T00:49:51.503Z,797.00
2023-05-09T00:50:51.532Z,794.00
2023-05-09T00:51:51.540Z,793.00
2023-05-09T00:52:51.575Z,788.00
2023-05-09T00:53:51.619Z,789.00
2023-05-09T00:54:51.618Z,794.00
2023-05-09T00:55:51.655Z,793.00
2023-05-09T00:56:51.688Z,791.00
2023-05-09T00:57:51.719Z,791.00
2023-05-09T00:58:51.718Z,793.00
2023-05-09T00:59:51.763Z,790.00
2023-05-09T01:00:51.871Z,787.00
2023-05-09T01:01:52.021Z,788.00
2023-05-09T01:02:52.842Z,787.00
2023-05-09T01:03:51.929Z,785.00
2023-05-09T01:04:51.894Z,785.00
2023-05-09T01:05:52.526Z,784.00
2023-05-09T01:06:51.926Z,783.00
2023-05-09T01:07:51.939Z,783.00
2023-05-09T01:08:51.966Z,783.00
2023-05-09T01:09:52.006Z,782.00
2023-05-09T01:10:52.082Z,781.00
2023-05-09T01:11:52.030Z,784.00
2023-05-09T01:12:52.116Z,784.00
2023-05-09T01:13:52.098Z,783.00
2023-05-09T01:14:52.231Z,782.00
2023-05-09T01:15:52.208Z,780.00
2023-05-09T01:16:52.223Z,780.00
2023-05-09T01:17:52.184Z,781.00
2023-05-09T01:18:52.213Z,778.00
2023-05-09T01:19:52.205Z,777.00
2023-05-09T01:20:52.268Z,777.00
2023-05-09T01:21:52.280Z,777.00
2023-05-09T01:22:52.306Z,778.00
2023-05-09T01:23:52.356Z,778.00
2023-05-09T01:24:52.343Z,779.00
2023-05-09T01:25:52.400Z,779.00
2023-05-09T01:26:52.426Z,778.00
2023-05-09T01:27:52.472Z,776.00
2023-05-09T01:28:52.484Z,774.00
2023-05-09T01:29:52.484Z,775.00
2023-05-09T01:30:52.614Z,776.00
2023-05-09T01:31:52.558Z,776.00
2023-05-09T01:32:52.713Z,777.00
2023-05-09T01:33:52.585Z,778.00
2023-05-09T01:34:52.659Z,776.00
2023-05-09T01:35:52.678Z,777.00
2023-05-09T01:36:52.688Z,779.00
2023-05-09T01:37:52.703Z,778.00
2023-05-09T01:38:52.755Z,778.00
2023-05-09T01:39:52.752Z,776.00
2023-05-09T01:40:52.814Z,774.00
2023-05-09T01:41:52.884Z,774.00
2023-05-09T01:42:52.849Z,774.00
2023-05-09T01:43:52.907Z,774.00
2023-05-09T01:44:52.955Z,773.00
2023-05-09T01:45:52.929Z,772.00
2023-05-09T01:46:53.011Z,773.00
2023-05-09T01:47:53.041Z,773.00
2023-05-09T01:48:53.117Z,775.00
2023-05-09T01:49:53.041Z,775.00
2023-05-09T01:50:53.067Z,773.00
2023-05-09T01:51:53.160Z,770.00
2023-05-09T01:52:53.146Z,767.00
2023-05-09T01:53:53.157Z,767.00
2023-05-09T01:54:53.189Z,764.00
2023-05-09T01:55:53.235Z,762.00
2023-05-09T01:56:54.106Z,761.00
2023-05-09T01:57:53.264Z,762.00
2023-05-09T01:58:53.283Z,764.00
2023-05-09T01:59:53.336Z,764.00
2023-05-09T02:00:53.450Z,766.00
2023-05-09T02:01:53.401Z,765.00
2023-05-09T02:02:53.536Z,765.00
2023-05-09T02:03:53.434Z,765.00
2023-05-09T02:04:53.529Z,767.00
2023-05-09T02:05:53.551Z,765.00
2023-05-09T02:06:54.063Z,764.00
2023-05-09T02:07:53.531Z,763.00
2023-05-09T02:08:53.598Z,765.00
2023-05-09T02:09:53.630Z,766.00
2023-05-09T02:10:53.617Z,767.00
2023-05-09T02:11:53.659Z,767.00
2023-05-09T02:12:54.607Z,769.00
2023-05-09T02:13:53.690Z,768.00
2023-05-09T02:14:53.772Z,767.00
2023-05-09T02:15:53.752Z,767.00
2023-05-09T02:16:53.779Z,766.00
2023-05-09T02:17:53.836Z,766.00
2023-05-09T02:18:53.828Z,767.00
2023-05-09T02:19:53.859Z,769.00
2023-05-09T02:20:54.021Z,767.00
2023-05-09T02:21:53.877Z,764.00
2023-05-09T02:22:53.947Z,765.00
2023-05-09T02:23:53.945Z,767.00
2023-05-09T02:24:53.994Z,765.00
2023-05-09T02:25:54.006Z,764.00
2023-05-09T02:26:54.041Z,763.00
2023-05-09T02:27:54.056Z,764.00
2023-05-09T02:28:54.240Z,765.00
2023-05-09T02:29:54.106Z,768.00
2023-05-09T02:30:54.111Z,768.00
2023-05-09T02:31:54.214Z,769.00
2023-05-09T02:32:54.252Z,768.00
2023-05-09T02:33:54.217Z,766.00
2023-05-09T02:34:54.226Z,764.00
2023-05-09T02:35:54.269Z,764.00
2023-05-09T02:36:54.417Z,764.00
2023-05-09T02:37:55.096Z,765.00
2023-05-09T02:38:54.383Z,766.00
2023-05-09T02:39:54.403Z,765.00
2023-05-09T02:40:54.424Z,763.00
2023-05-09T02:41:54.458Z,763.00
2023-05-09T02:42:54.501Z,763.00
2023-05-09T02:43:54.527Z,766.00
2023-05-09T02:44:54.581Z,765.00
2023-05-09T02:45:54.615Z,764.00
2023-05-09T02:46:55.619Z,762.00
2023-05-09T02:47:54.800Z,761.00
2023-05-09T02:48:54.717Z,761.00
2023-05-09T02:49:54.714Z,761.00
2023-05-09T02:50:54.782Z,760.00
2023-05-09T02:51:54.759Z,761.00
2023-05-09T02:52:54.923Z,758.00
2023-05-09T02:53:54.867Z,760.00
2023-05-09T02:54:54.891Z,762.00
2023-05-09T02:55:54.920Z,759.00
2023-05-09T02:56:54.941Z,755.00
2023-05-09T02:58:09.215Z,755.00
2023-05-09T02:58:55.950Z,751.00
2023-05-09T02:59:54.964Z,749.00
2023-05-09T03:00:54.965Z,748.00
2023-05-09T03:01:55.079Z,748.00
2023-05-09T03:02:54.950Z,746.00
2023-05-09T03:03:55.086Z,746.00
2023-05-09T03:04:54.910Z,748.00
2023-05-09T03:05:54.941Z,748.00
2023-05-09T03:06:54.985Z,748.00
2023-05-09T03:07:54.922Z,750.00
2023-05-09T03:08:54.982Z,752.00
2023-05-09T03:09:54.904Z,749.00
2023-05-09T03:10:54.883Z,749.00
2023-05-09T03:11:54.858Z,750.00
2023-05-09T03:12:54.904Z,747.00
2023-05-09T03:13:54.978Z,751.00
2023-05-09T03:14:54.916Z,753.00
2023-05-09T03:15:54.965Z,752.00
2023-05-09T03:16:54.987Z,752.00
2023-05-09T03:17:54.993Z,751.00
2023-05-09T03:18:55.028Z,750.00
2023-05-09T03:19:55.067Z,751.00
2023-05-09T03:20:55.130Z,752.00
2023-05-09T03:21:55.133Z,753.00
2023-05-09T03:22:55.124Z,752.00
2023-05-09T03:23:55.185Z,751.00
2023-05-09T03:24:55.284Z,749.00
2023-05-09T03:25:55.240Z,748.00
2023-05-09T03:26:55.308Z,746.00
2023-05-09T03:27:55.301Z,744.00
2023-05-09T03:28:55.607Z,742.00
2023-05-09T03:29:55.404Z,739.00
2023-05-09T03:30:55.403Z,738.00
2023-05-09T03:31:55.500Z,742.00
2023-05-09T03:32:55.505Z,744.00
2023-05-09T03:33:55.616Z,743.00
2023-05-09T03:34:55.504Z,743.00
2023-05-09T03:35:55.538Z,743.00
2023-05-09T03:36:55.569Z,743.00
2023-05-09T03:37:55.613Z,743.00
2023-05-09T03:38:55.655Z,742.00
2023-05-09T03:39:55.744Z,741.00
2023-05-09T03:40:55.787Z,741.00
2023-05-09T03:41:55.762Z,741.00
2023-05-09T03:42:55.758Z,739.00
2023-05-09T03:43:56.099Z,740.00
2023-05-09T03:44:55.844Z,740.00
2023-05-09T03:45:55.867Z,739.00
2023-05-09T03:46:55.936Z,736.00
2023-05-09T03:47:55.997Z,735.00
2023-05-09T03:48:55.997Z,736.00
2023-05-09T03:49:56.004Z,739.00
2023-05-09T03:50:56.047Z,739.00
2023-05-09T03:51:56.095Z,739.00
2023-05-09T03:52:56.088Z,738.00
2023-05-09T03:53:56.175Z,737.00
2023-05-09T03:54:56.146Z,737.00
2023-05-09T03:55:56.214Z,740.00
2023-05-09T03:56:56.348Z,738.00
2023-05-09T03:57:56.270Z,736.00
2023-05-09T03:58:57.115Z,736.00
2023-05-09T03:59:56.376Z,737.00
2023-05-09T04:00:56.361Z,741.00
2023-05-09T04:01:56.445Z,738.00
2023-05-09T04:02:56.553Z,740.00
2023-05-09T04:03:56.525Z,740.00
2023-05-09T04:04:56.499Z,741.00
2023-05-09T04:05:56.658Z,741.00
2023-05-09T04:06:56.602Z,742.00
2023-05-09T04:07:56.623Z,742.00
2023-05-09T04:08:56.645Z,744.00
2023-05-09T04:09:56.672Z,744.00
2023-05-09T04:10:56.722Z,744.00
2023-05-09T04:11:57.701Z,739.00
2023-05-09T04:12:56.876Z,736.00
2023-05-09T04:13:56.728Z,736.00
2023-05-09T04:14:56.664Z,736.00
2023-05-09T04:15:56.662Z,738.00
2023-05-09T04:16:56.686Z,738.00
2023-05-09T04:17:56.683Z,740.00
2023-05-09T04:18:56.610Z,741.00
2023-05-09T04:19:56.710Z,739.00
2023-05-09T04:20:56.650Z,737.00
2023-05-09T04:21:56.613Z,739.00
2023-05-09T04:22:56.604Z,738.00
2023-05-09T04:23:56.721Z,739.00
2023-05-09T04:24:56.760Z,736.00
2023-05-09T04:25:56.687Z,735.00
2023-05-09T04:26:56.730Z,735.00
2023-05-09T04:27:56.791Z,737.00
2023-05-09T04:28:56.888Z,736.00
2023-05-09T04:29:56.819Z,736.00
2023-05-09T04:30:56.936Z,736.00
2023-05-09T04:31:56.999Z,736.00
2023-05-09T04:32:57.000Z,734.00
2023-05-09T04:33:56.995Z,735.00
2023-05-09T04:34:57.079Z,733.00
2023-05-09T04:35:57.121Z,732.00
2023-05-09T04:36:57.068Z,732.00
2023-05-09T04:37:57.109Z,730.00
2023-05-09T04:38:57.171Z,730.00
2023-05-09T04:39:57.170Z,733.00
2023-05-09T04:40:57.240Z,734.00
2023-05-09T04:41:57.260Z,733.00
2023-05-09T04:42:57.291Z,732.00
2023-05-09T04:43:57.657Z,731.00
2023-05-09T04:44:57.429Z,733.00
2023-05-09T04:45:57.421Z,732.00
2023-05-09T04:46:57.441Z,730.00
2023-05-09T04:47:57.455Z,731.00
2023-05-09T04:48:57.469Z,731.00
2023-05-09T04:49:57.525Z,731.00
2023-05-09T04:50:57.560Z,732.00
2023-05-09T04:51:57.580Z,734.00
2023-05-09T04:52:57.669Z,731.00
2023-05-09T04:53:57.696Z,728.00
2023-05-09T04:54:57.695Z,726.00
2023-05-09T04:55:57.738Z,725.00
2023-05-09T04:57:09.979Z,726.00
2023-05-09T04:57:58.806Z,727.00
2023-05-09T04:58:58.197Z,729.00
2023-05-09T04:59:57.853Z,729.00
2023-05-09T05:00:57.831Z,726.00
2023-05-09T05:01:57.818Z,727.00
2023-05-09T05:02:57.848Z,726.00
2023-05-09T05:03:57.724Z,727.00
2023-05-09T05:05:10.116Z,727.00
2023-05-09T05:05:58.738Z,726.00
2023-05-09T05:06:57.761Z,724.00
2023-05-09T05:07:57.702Z,723.00
2023-05-09T05:08:58.150Z,723.00
2023-05-09T05:09:57.688Z,723.00
2023-05-09T05:10:57.688Z,720.00
2023-05-09T05:12:02.302Z,721.00
2023-05-09T05:12:58.789Z,719.00
2023-05-09T05:13:57.681Z,716.00
2023-05-09T05:14:57.656Z,715.00
2023-05-09T05:15:57.701Z,715.00
2023-05-09T05:16:57.776Z,718.00
2023-05-09T05:17:57.672Z,716.00
2023-05-09T05:18:57.632Z,720.00
2023-05-09T05:19:57.661Z,717.00
2023-05-09T05:20:57.626Z,716.00
2023-05-09T05:21:57.632Z,715.00
2023-05-09T05:22:57.696Z,715.00
2023-05-09T05:23:57.600Z,711.00
2023-05-09T05:24:57.609Z,712.00
2023-05-09T05:25:57.628Z,709.00
2023-05-09T05:26:57.574Z,708.00
2023-05-09T05:27:57.571Z,708.00
2023-05-09T05:28:57.605Z,711.00
2023-05-09T05:29:57.539Z,712.00
2023-05-09T05:30:57.543Z,711.00
2023-05-09T05:31:57.618Z,710.00
2023-05-09T05:32:57.726Z,706.00
2023-05-09T05:33:57.569Z,709.00
2023-05-09T05:34:57.555Z,707.00
2023-05-09T05:35:57.506Z,708.00
2023-05-09T05:36:57.536Z,848.00
2023-05-09T05:37:57.517Z,936.00
2023-05-09T05:38:57.554Z,828.00
2023-05-09T05:39:57.553Z,754.00
2023-05-09T05:40:57.487Z,931.00
2023-05-09T05:41:57.494Z,842.00
2023-05-09T05:42:57.796Z,868.00
2023-05-09T05:43:57.465Z,864.00
2023-05-09T05:44:57.455Z,870.00
2023-05-09T05:45:57.635Z,929.00
2023-05-09T05:46:57.487Z,946.00
2023-05-09T05:47:57.588Z,840.00
2023-05-09T05:48:57.691Z,839.00
2023-05-09T05:49:57.656Z,812.00
2023-05-09T05:50:57.634Z,775.00
2023-05-09T05:51:57.729Z,762.00
2023-05-09T05:52:57.717Z,797.00
2023-05-09T05:53:58.171Z,905.00
2023-05-09T05:54:57.743Z,883.00
2023-05-09T05:55:57.782Z,933.00
2023-05-09T05:56:57.814Z,1420.00
2023-05-09T05:57:57.830Z,1111.00
2023-05-09T05:58:57.925Z,933.00
2023-05-09T05:59:57.942Z,1066.00
2023-05-09T06:00:58.002Z,923.00
2023-05-09T06:01:58.135Z,1161.00
2023-05-09T06:02:58.170Z,1096.00
2023-05-09T06:03:58.209Z,1097.00
2023-05-09T06:04:58.222Z,1223.00
2023-05-09T06:05:58.249Z,1185.00
2023-05-09T06:06:58.144Z,1234.00
2023-05-09T06:07:58.170Z,1141.00
2023-05-09T06:08:58.174Z,1212.00
2023-05-09T06:09:58.232Z,1261.00
2023-05-09T06:10:58.171Z,1280.00
2023-05-09T06:11:58.209Z,1250.00
2023-05-09T06:12:59.195Z,1378.00
2023-05-09T06:13:58.223Z,1342.00
2023-05-09T06:14:58.281Z,1341.00
2023-05-09T06:16:07.773Z,1474.00
2023-05-09T06:16:59.409Z,1480.00
2023-05-09T06:17:58.421Z,1514.00
2023-05-09T06:18:58.340Z,1534.00
2023-05-09T06:19:58.318Z,1713.00
2023-05-09T06:20:58.386Z,1541.00
2023-05-09T06:21:58.339Z,1529.00
2023-05-09T06:22:58.330Z,1524.00
2023-05-09T06:24:08.383Z,1740.00
2023-05-09T06:24:59.268Z,1599.00
2023-05-09T06:25:58.291Z,1703.00
2023-05-09T06:26:58.242Z,1591.00
2023-05-09T06:27:58.269Z,1563.00
2023-05-09T06:28:58.224Z,1731.00
2023-05-09T06:29:58.226Z,1602.00
2023-05-09T06:30:58.303Z,1682.00
2023-05-09T06:31:58.264Z,1661.00
2023-05-09T06:32:58.346Z,1612.00
2023-05-09T06:33:58.223Z,1593.00
2023-05-09T06:34:58.209Z,1618.00
2023-05-09T06:35:58.206Z,1720.00
2023-05-09T06:36:58.277Z,1717.00
2023-05-09T06:37:58.192Z,1811.00
2023-05-09T06:38:58.688Z,1801.00
2023-05-09T06:39:58.184Z,1711.00
2023-05-09T06:40:58.193Z,1720.00
2023-05-09T06:41:58.202Z,1822.00
2023-05-09T06:42:58.182Z,1840.00
2023-05-09T06:43:58.159Z,1859.00
2023-05-09T06:44:58.199Z,1899.00
2023-05-09T06:45:58.162Z,1747.00
2023-05-09T06:46:58.197Z,1793.00
2023-05-09T06:47:58.306Z,1885.00
2023-05-09T06:48:58.682Z,1812.00
2023-05-09T06:49:58.285Z,1770.00
2023-05-09T06:50:58.318Z,1769.00
2023-05-09T06:51:58.361Z,1764.00
2023-05-09T06:52:58.455Z,1660.00
2023-05-09T06:53:58.438Z,1529.00
2023-05-09T06:54:58.490Z,1620.00
2023-05-09T06:55:58.581Z,1604.00
2023-05-09T06:56:58.577Z,1713.00
2023-05-09T06:57:58.664Z,1690.00
2023-05-09T06:58:58.676Z,1590.00
2023-05-09T06:59:58.700Z,1563.00
2023-05-09T07:00:58.726Z,1582.00
2023-05-09T07:01:58.937Z,1604.00
2023-05-09T07:02:58.865Z,1612.00
2023-05-09T07:03:58.865Z,1613.00
2023-05-09T07:04:58.937Z,1616.00
2023-05-09T07:05:58.967Z,1615.00
2023-05-09T07:06:58.972Z,1618.00
2023-05-09T07:07:59.041Z,1627.00
2023-05-09T07:08:59.170Z,1269.00
2023-05-09T07:10:10.572Z,1202.00
2023-05-09T07:11:00.130Z,1103.00
2023-05-09T07:11:59.099Z,997.00
2023-05-09T07:12:59.100Z,944.00
2023-05-09T07:13:59.150Z,940.00
2023-05-09T07:14:59.075Z,941.00
2023-05-09T07:15:59.090Z,938.00
2023-05-09T07:17:13.854Z,927.00
2023-05-09T07:18:00.156Z,910.00
2023-05-09T07:18:59.045Z,830.00
2023-05-09T07:19:59.083Z,819.00
2023-05-09T07:20:59.012Z,814.00
2023-05-09T07:21:59.009Z,786.00
2023-05-09T07:22:59.016Z,785.00
2023-05-09T07:23:59.052Z,816.00
2023-05-09T07:24:59.331Z,820.00
2023-05-09T07:25:58.969Z,818.00
2023-05-09T07:26:58.976Z,809.00
2023-05-09T07:27:58.965Z,783.00
2023-05-09T07:28:58.986Z,773.00
2023-05-09T07:29:58.969Z,912.00
2023-05-09T07:30:58.972Z,798.00
2023-05-09T07:31:58.977Z,900.00
2023-05-09T07:32:58.994Z,1016.00
2023-05-09T07:33:58.935Z,1067.00
2023-05-09T07:34:58.953Z,1053.00
2023-05-09T07:35:58.956Z,1056.00
2023-05-09T07:36:58.932Z,1060.00
2023-05-09T07:37:58.964Z,1063.00
2023-05-09T07:38:59.009Z,1074.00
2023-05-09T07:39:59.053Z,1085.00
2023-05-09T07:40:59.228Z,1094.00
2023-05-09T07:41:59.171Z,1207.00
2023-05-09T07:42:59.203Z,1356.00
2023-05-09T07:43:59.733Z,1429.00
2023-05-09T07:44:59.272Z,1413.00
2023-05-09T07:45:59.329Z,1520.00
2023-05-09T07:46:59.330Z,2005.00
2023-05-09T07:47:59.419Z,1673.00
2023-05-09T07:48:59.438Z,1537.00
2023-05-09T07:49:59.389Z,1428.00
2023-05-09T07:50:59.408Z,1453.00
2023-05-09T07:51:59.386Z,1446.00
2023-05-09T07:52:59.450Z,1524.00
2023-05-09T07:53:59.440Z,1513.00
2023-05-09T07:54:59.469Z,1531.00
2023-05-09T07:55:59.543Z,1537.00
2023-05-09T07:56:59.564Z,1543.00
2023-05-09T07:57:59.491Z,1552.00
2023-05-09T07:58:59.534Z,1560.00
2023-05-09T07:59:59.560Z,1569.00
2023-05-09T08:00:59.562Z,1647.00
2023-05-09T08:01:59.559Z,1635.00
2023-05-09T08:02:59.788Z,1644.00
2023-05-09T08:03:59.701Z,1654.00
2023-05-09T08:04:59.563Z,1660.00
2023-05-09T08:05:59.616Z,1665.00
2023-05-09T08:06:59.631Z,1679.00
2023-05-09T08:07:59.591Z,1688.00
2023-05-09T08:08:59.730Z,1690.00
2023-05-09T08:09:59.637Z,1723.00
2023-05-09T08:10:59.630Z,1731.00
2023-05-09T08:11:59.675Z,1745.00
2023-05-09T08:12:59.864Z,1813.00
2023-05-09T08:14:00.224Z,1823.00
2023-05-09T08:14:59.852Z,1856.00
2023-05-09T08:16:00.057Z,1852.00
2023-05-09T08:16:59.947Z,1920.00
2023-05-09T08:18:00.157Z,1885.00
2023-05-09T08:19:00.090Z,1890.00
2023-05-09T08:20:00.106Z,1896.00
2023-05-09T08:21:00.138Z,1906.00
2023-05-09T08:22:00.178Z,2030.00
2023-05-09T08:23:00.285Z,1975.00
2023-05-09T08:24:00.328Z,1967.00
2023-05-09T08:25:00.354Z,1955.00
2023-05-09T08:26:00.480Z,2081.00
2023-05-09T08:27:00.433Z,2047.00
2023-05-09T08:28:00.614Z,1999.00
2023-05-09T08:29:00.617Z,2120.00
2023-05-09T08:30:00.674Z,2163.00
2023-05-09T08:31:00.674Z,2083.00
2023-05-09T08:32:00.654Z,2112.00
